Turin, Iowa
Current Conditions -  °F | °C
As of 12:19 AM on Thursday 23 Oct 2014 (Local Time) from KTQE Reporting Station
Overcast Overcast  
Wind Chill: 62°   Ceiling: 1700
Heat Index: 62°   Visibility: 10mi
Dew Point: 60°   Wind: 5mph
Humidity: 93%   Direction: 160°SSE
Pressure: 30.02"   Gusts: NA
Location:  42.02°N, 95.97°W
Report Text: KTQE 230519Z AUTO 16004KT 10SM BKN017 OVC039 17/16 A3002 RMK AO2 T01670156
Loading
Personal Weather Stations






























Interactive Weather Map
Tropical Storm Tracking
New forecast layout! Learn more

10-Day Weather Forecast

Advertisements
Track Severe Weather on mobile